sensor_id;sensor_type;location;lat;lon;timestamp;P1;durP1;ratioP1;P2;durP2;ratioP2
43835;SDS011;39345;43.964;25.340;2023-02-17T00:02:24;94.47;;;45.45;;
43835;SDS011;39345;43.964;25.340;2023-02-17T00:04:52;90.25;;;43.88;;
43835;SDS011;39345;43.964;25.340;2023-02-17T00:07:19;89.32;;;45.08;;
43835;SDS011;39345;43.964;25.340;2023-02-17T00:09:47;87.93;;;44.75;;
43835;SDS011;39345;43.964;25.340;2023-02-17T00:12:14;85.88;;;43.63;;
43835;SDS011;39345;43.964;25.340;2023-02-17T00:14:42;92.55;;;44.95;;
43835;SDS011;39345;43.964;25.340;2023-02-17T00:17:09;85.82;;;42.00;;
43835;SDS011;39345;43.964;25.340;2023-02-17T00:19:37;85.82;;;43.25;;
43835;SDS011;39345;43.964;25.340;2023-02-17T00:22:04;90.45;;;43.45;;
43835;SDS011;39345;43.964;25.340;2023-02-17T00:24:32;91.13;;;43.72;;
43835;SDS011;39345;43.964;25.340;2023-02-17T00:27:00;84.00;;;42.13;;
43835;SDS011;39345;43.964;25.340;2023-02-17T00:29:27;79.05;;;41.28;;
43835;SDS011;39345;43.964;25.340;2023-02-17T00:31:54;85.85;;;42.85;;
43835;SDS011;39345;43.964;25.340;2023-02-17T00:34:22;86.80;;;41.97;;
43835;SDS011;39345;43.964;25.340;2023-02-17T00:36:50;89.97;;;42.97;;
43835;SDS011;39345;43.964;25.340;2023-02-17T00:39:18;87.60;;;43.20;;
43835;SDS011;39345;43.964;25.340;2023-02-17T00:41:47;90.93;;;43.13;;
43835;SDS011;39345;43.964;25.340;2023-02-17T00:44:16;91.63;;;46.35;;
43835;SDS011;39345;43.964;25.340;2023-02-17T00:46:44;89.03;;;43.85;;
43835;SDS011;39345;43.964;25.340;2023-02-17T00:49:16;96.72;;;45.15;;
43835;SDS011;39345;43.964;25.340;2023-02-17T00:51:44;92.13;;;44.33;;
43835;SDS011;39345;43.964;25.340;2023-02-17T00:54:12;90.45;;;43.90;;
43835;SDS011;39345;43.964;25.340;2023-02-17T00:56:40;88.90;;;45.58;;
43835;SDS011;39345;43.964;25.340;2023-02-17T00:59:08;95.47;;;45.90;;
43835;SDS011;39345;43.964;25.340;2023-02-17T01:01:36;96.45;;;45.72;;
43835;SDS011;39345;43.964;25.340;2023-02-17T01:04:04;97.32;;;45.30;;
43835;SDS011;39345;43.964;25.340;2023-02-17T01:06:33;86.47;;;42.70;;
43835;SDS011;39345;43.964;25.340;2023-02-17T01:09:01;91.70;;;43.80;;
43835;SDS011;39345;43.964;25.340;2023-02-17T01:11:29;102.28;;;44.72;;
43835;SDS011;39345;43.964;25.340;2023-02-17T01:13:58;91.38;;;42.05;;
43835;SDS011;39345;43.964;25.340;2023-02-17T01:16:27;90.45;;;43.55;;
43835;SDS011;39345;43.964;25.340;2023-02-17T01:18:57;91.50;;;42.58;;
43835;SDS011;39345;43.964;25.340;2023-02-17T01:21:26;86.65;;;41.97;;
43835;SDS011;39345;43.964;25.340;2023-02-17T01:23:54;92.20;;;41.78;;
43835;SDS011;39345;43.964;25.340;2023-02-17T01:26:23;79.85;;;38.25;;
43835;SDS011;39345;43.964;25.340;2023-02-17T01:28:52;84.00;;;39.72;;
43835;SDS011;39345;43.964;25.340;2023-02-17T01:31:20;84.40;;;40.20;;
43835;SDS011;39345;43.964;25.340;2023-02-17T01:33:48;76.93;;;37.38;;
43835;SDS011;39345;43.964;25.340;2023-02-17T01:36:16;74.00;;;37.03;;
43835;SDS011;39345;43.964;25.340;2023-02-17T01:38:44;74.20;;;36.42;;
43835;SDS011;39345;43.964;25.340;2023-02-17T01:41:17;69.03;;;34.65;;
43835;SDS011;39345;43.964;25.340;2023-02-17T01:44:04;64.78;;;34.08;;
43835;SDS011;39345;43.964;25.340;2023-02-17T01:46:36;67.53;;;34.38;;
43835;SDS011;39345;43.964;25.340;2023-02-17T01:49:06;68.18;;;33.45;;
43835;SDS011;39345;43.964;25.340;2023-02-17T01:51:36;68.45;;;33.33;;
43835;SDS011;39345;43.964;25.340;2023-02-17T01:54:08;66.00;;;32.95;;
43835;SDS011;39345;43.964;25.340;2023-02-17T01:56:38;67.28;;;33.10;;
43835;SDS011;39345;43.964;25.340;2023-02-17T01:59:09;67.45;;;34.13;;
43835;SDS011;39345;43.964;25.340;2023-02-17T02:01:37;64.50;;;32.85;;
43835;SDS011;39345;43.964;25.340;2023-02-17T02:04:05;66.22;;;32.17;;
43835;SDS011;39345;43.964;25.340;2023-02-17T02:06:34;60.38;;;29.75;;
43835;SDS011;39345;43.964;25.340;2023-02-17T02:09:13;68.25;;;32.97;;
43835;SDS011;39345;43.964;25.340;2023-02-17T02:11:42;63.42;;;31.60;;
43835;SDS011;39345;43.964;25.340;2023-02-17T02:14:09;62.10;;;30.85;;
43835;SDS011;39345;43.964;25.340;2023-02-17T02:22:11;62.78;;;29.30;;
43835;SDS011;39345;43.964;25.340;2023-02-17T02:32:23;56.00;;;28.55;;
43835;SDS011;39345;43.964;25.340;2023-02-17T02:34:57;56.88;;;28.73;;
43835;SDS011;39345;43.964;25.340;2023-02-17T02:37:30;54.50;;;27.30;;
43835;SDS011;39345;43.964;25.340;2023-02-17T02:39:59;51.90;;;25.77;;
43835;SDS011;39345;43.964;25.340;2023-02-17T02:42:31;49.85;;;25.48;;
43835;SDS011;39345;43.964;25.340;2023-02-17T02:44:59;49.65;;;26.30;;
43835;SDS011;39345;43.964;25.340;2023-02-17T02:50:01;51.95;;;25.13;;
43835;SDS011;39345;43.964;25.340;2023-02-17T02:52:31;48.17;;;25.17;;
43835;SDS011;39345;43.964;25.340;2023-02-17T02:55:04;51.17;;;25.85;;
43835;SDS011;39345;43.964;25.340;2023-02-17T02:58:10;46.58;;;24.55;;
43835;SDS011;39345;43.964;25.340;2023-02-17T03:03:13;43.50;;;22.65;;
43835;SDS011;39345;43.964;25.340;2023-02-17T03:08:38;41.97;;;23.58;;
43835;SDS011;39345;43.964;25.340;2023-02-17T03:11:08;40.30;;;21.95;;
43835;SDS011;39345;43.964;25.340;2023-02-17T03:13:36;44.95;;;23.75;;
43835;SDS011;39345;43.964;25.340;2023-02-17T03:16:07;40.58;;;22.23;;
43835;SDS011;39345;43.964;25.340;2023-02-17T03:18:37;45.05;;;22.85;;
43835;SDS011;39345;43.964;25.340;2023-02-17T03:21:08;46.30;;;23.33;;
43835;SDS011;39345;43.964;25.340;2023-02-17T03:23:37;40.05;;;22.02;;
43835;SDS011;39345;43.964;25.340;2023-02-17T03:26:05;43.60;;;23.23;;
43835;SDS011;39345;43.964;25.340;2023-02-17T03:28:33;42.55;;;22.65;;
43835;SDS011;39345;43.964;25.340;2023-02-17T03:31:00;43.85;;;23.92;;
43835;SDS011;39345;43.964;25.340;2023-02-17T03:33:28;46.35;;;24.65;;
43835;SDS011;39345;43.964;25.340;2023-02-17T03:35:55;43.75;;;22.58;;
43835;SDS011;39345;43.964;25.340;2023-02-17T03:38:23;41.97;;;23.42;;
43835;SDS011;39345;43.964;25.340;2023-02-17T03:40:50;47.70;;;24.27;;
43835;SDS011;39345;43.964;25.340;2023-02-17T03:43:19;46.47;;;23.58;;
43835;SDS011;39345;43.964;25.340;2023-02-17T03:45:46;47.08;;;25.00;;
43835;SDS011;39345;43.964;25.340;2023-02-17T03:48:14;46.25;;;24.15;;
43835;SDS011;39345;43.964;25.340;2023-02-17T03:50:41;48.75;;;23.83;;
43835;SDS011;39345;43.964;25.340;2023-02-17T03:53:09;46.28;;;24.92;;
43835;SDS011;39345;43.964;25.340;2023-02-17T03:55:37;51.53;;;27.00;;
43835;SDS011;39345;43.964;25.340;2023-02-17T03:58:04;42.85;;;24.30;;
43835;SDS011;39345;43.964;25.340;2023-02-17T04:00:32;48.05;;;25.45;;
43835;SDS011;39345;43.964;25.340;2023-02-17T04:02:59;51.95;;;26.02;;
43835;SDS011;39345;43.964;25.340;2023-02-17T04:05:27;48.17;;;26.63;;
43835;SDS011;39345;43.964;25.340;2023-02-17T04:07:54;52.42;;;25.85;;
43835;SDS011;39345;43.964;25.340;2023-02-17T04:10:21;51.33;;;27.23;;
43835;SDS011;39345;43.964;25.340;2023-02-17T04:12:49;49.13;;;26.33;;
43835;SDS011;39345;43.964;25.340;2023-02-17T04:15:16;52.38;;;27.67;;
43835;SDS011;39345;43.964;25.340;2023-02-17T04:17:44;52.22;;;27.40;;
43835;SDS011;39345;43.964;25.340;2023-02-17T04:20:11;50.25;;;27.67;;
43835;SDS011;39345;43.964;25.340;2023-02-17T04:22:39;51.22;;;27.05;;
43835;SDS011;39345;43.964;25.340;2023-02-17T04:25:07;54.17;;;28.83;;
43835;SDS011;39345;43.964;25.340;2023-02-17T04:27:34;49.33;;;27.70;;
43835;SDS011;39345;43.964;25.340;2023-02-17T04:30:02;56.50;;;29.73;;
43835;SDS011;39345;43.964;25.340;2023-02-17T04:32:29;57.33;;;29.52;;
43835;SDS011;39345;43.964;25.340;2023-02-17T04:34:57;57.03;;;29.65;;
43835;SDS011;39345;43.964;25.340;2023-02-17T04:37:24;55.25;;;30.48;;
43835;SDS011;39345;43.964;25.340;2023-02-17T04:39:52;61.05;;;31.20;;
43835;SDS011;39345;43.964;25.340;2023-02-17T04:42:19;58.05;;;30.17;;
43835;SDS011;39345;43.964;25.340;2023-02-17T04:44:47;58.50;;;30.88;;
43835;SDS011;39345;43.964;25.340;2023-02-17T04:47:14;62.60;;;31.65;;
43835;SDS011;39345;43.964;25.340;2023-02-17T04:49:42;64.32;;;32.67;;
43835;SDS011;39345;43.964;25.340;2023-02-17T04:52:09;62.83;;;33.33;;
43835;SDS011;39345;43.964;25.340;2023-02-17T04:54:36;64.53;;;32.40;;
43835;SDS011;39345;43.964;25.340;2023-02-17T04:57:04;60.60;;;31.02;;
43835;SDS011;39345;43.964;25.340;2023-02-17T04:59:31;60.65;;;30.88;;
43835;SDS011;39345;43.964;25.340;2023-02-17T05:01:59;67.10;;;33.67;;
43835;SDS011;39345;43.964;25.340;2023-02-17T05:04:26;66.15;;;33.75;;
43835;SDS011;39345;43.964;25.340;2023-02-17T05:06:54;68.47;;;35.13;;
43835;SDS011;39345;43.964;25.340;2023-02-17T05:09:21;68.13;;;35.45;;
43835;SDS011;39345;43.964;25.340;2023-02-17T05:11:49;70.90;;;35.90;;
43835;SDS011;39345;43.964;25.340;2023-02-17T05:14:16;66.40;;;34.65;;
43835;SDS011;39345;43.964;25.340;2023-02-17T05:16:44;70.88;;;35.67;;
43835;SDS011;39345;43.964;25.340;2023-02-17T05:19:11;64.70;;;34.17;;
43835;SDS011;39345;43.964;25.340;2023-02-17T05:21:39;71.78;;;37.53;;
43835;SDS011;39345;43.964;25.340;2023-02-17T05:24:06;72.80;;;36.47;;
43835;SDS011;39345;43.964;25.340;2023-02-17T05:26:34;70.90;;;35.60;;
43835;SDS011;39345;43.964;25.340;2023-02-17T05:29:01;70.20;;;35.92;;
43835;SDS011;39345;43.964;25.340;2023-02-17T05:31:29;70.57;;;36.55;;
43835;SDS011;39345;43.964;25.340;2023-02-17T05:33:57;73.53;;;37.75;;
43835;SDS011;39345;43.964;25.340;2023-02-17T05:36:24;70.95;;;38.72;;
43835;SDS011;39345;43.964;25.340;2023-02-17T05:38:52;73.18;;;38.00;;
43835;SDS011;39345;43.964;25.340;2023-02-17T05:41:19;72.13;;;38.03;;
43835;SDS011;39345;43.964;25.340;2023-02-17T05:43:47;70.00;;;35.97;;
43835;SDS011;39345;43.964;25.340;2023-02-17T05:46:14;73.40;;;38.17;;
43835;SDS011;39345;43.964;25.340;2023-02-17T05:48:42;72.88;;;38.50;;
43835;SDS011;39345;43.964;25.340;2023-02-17T05:51:11;71.57;;;37.17;;
43835;SDS011;39345;43.964;25.340;2023-02-17T05:53:44;73.18;;;37.95;;
43835;SDS011;39345;43.964;25.340;2023-02-17T05:56:12;70.82;;;39.92;;
43835;SDS011;39345;43.964;25.340;2023-02-17T05:58:39;76.15;;;39.13;;
43835;SDS011;39345;43.964;25.340;2023-02-17T06:01:10;73.82;;;40.38;;
43835;SDS011;39345;43.964;25.340;2023-02-17T06:03:38;72.30;;;39.15;;
43835;SDS011;39345;43.964;25.340;2023-02-17T06:06:05;78.68;;;42.38;;
43835;SDS011;39345;43.964;25.340;2023-02-17T06:08:34;84.65;;;44.83;;
43835;SDS011;39345;43.964;25.340;2023-02-17T06:11:01;82.30;;;43.00;;
43835;SDS011;39345;43.964;25.340;2023-02-17T06:13:29;79.97;;;42.42;;
43835;SDS011;39345;43.964;25.340;2023-02-17T06:15:56;77.93;;;41.83;;
43835;SDS011;39345;43.964;25.340;2023-02-17T06:18:24;75.90;;;41.92;;
43835;SDS011;39345;43.964;25.340;2023-02-17T06:20:53;75.50;;;42.15;;
43835;SDS011;39345;43.964;25.340;2023-02-17T06:23:22;72.80;;;39.85;;
43835;SDS011;39345;43.964;25.340;2023-02-17T06:25:50;72.35;;;41.00;;
43835;SDS011;39345;43.964;25.340;2023-02-17T06:28:17;74.10;;;41.88;;
43835;SDS011;39345;43.964;25.340;2023-02-17T06:30:45;71.47;;;42.55;;
43835;SDS011;39345;43.964;25.340;2023-02-17T06:33:12;73.78;;;42.88;;
43835;SDS011;39345;43.964;25.340;2023-02-17T06:35:40;70.95;;;41.75;;
43835;SDS011;39345;43.964;25.340;2023-02-17T06:38:07;75.75;;;43.60;;
43835;SDS011;39345;43.964;25.340;2023-02-17T06:40:35;75.57;;;42.90;;
43835;SDS011;39345;43.964;25.340;2023-02-17T06:43:03;85.50;;;47.25;;
43835;SDS011;39345;43.964;25.340;2023-02-17T06:45:32;77.00;;;42.88;;
43835;SDS011;39345;43.964;25.340;2023-02-17T06:47:59;68.90;;;40.53;;
43835;SDS011;39345;43.964;25.340;2023-02-17T06:50:27;70.15;;;40.35;;
43835;SDS011;39345;43.964;25.340;2023-02-17T06:52:54;78.35;;;45.25;;
43835;SDS011;39345;43.964;25.340;2023-02-17T06:55:22;71.43;;;41.20;;
43835;SDS011;39345;43.964;25.340;2023-02-17T06:57:49;74.68;;;42.92;;
43835;SDS011;39345;43.964;25.340;2023-02-17T07:00:17;75.10;;;44.90;;
43835;SDS011;39345;43.964;25.340;2023-02-17T07:02:44;70.38;;;42.60;;
43835;SDS011;39345;43.964;25.340;2023-02-17T07:05:12;74.03;;;45.70;;
43835;SDS011;39345;43.964;25.340;2023-02-17T07:07:39;64.47;;;42.47;;
43835;SDS011;39345;43.964;25.340;2023-02-17T07:10:07;59.55;;;43.25;;
43835;SDS011;39345;43.964;25.340;2023-02-17T07:12:35;62.20;;;42.15;;
43835;SDS011;39345;43.964;25.340;2023-02-17T07:15:02;63.45;;;44.30;;
43835;SDS011;39345;43.964;25.340;2023-02-17T07:17:30;64.13;;;42.28;;
43835;SDS011;39345;43.964;25.340;2023-02-17T07:19:57;72.97;;;44.55;;
43835;SDS011;39345;43.964;25.340;2023-02-17T07:22:25;66.95;;;42.17;;
43835;SDS011;39345;43.964;25.340;2023-02-17T07:24:52;73.65;;;44.53;;
43835;SDS011;39345;43.964;25.340;2023-02-17T07:27:20;70.70;;;42.53;;
43835;SDS011;39345;43.964;25.340;2023-02-17T07:29:47;69.57;;;43.33;;
43835;SDS011;39345;43.964;25.340;2023-02-17T07:32:15;70.00;;;42.97;;
43835;SDS011;39345;43.964;25.340;2023-02-17T07:34:42;69.47;;;42.67;;
43835;SDS011;39345;43.964;25.340;2023-02-17T07:37:10;66.32;;;41.55;;
43835;SDS011;39345;43.964;25.340;2023-02-17T07:39:37;66.47;;;41.60;;
43835;SDS011;39345;43.964;25.340;2023-02-17T07:42:05;74.70;;;44.72;;
43835;SDS011;39345;43.964;25.340;2023-02-17T07:44:32;70.78;;;43.22;;
43835;SDS011;39345;43.964;25.340;2023-02-17T07:47:00;74.45;;;43.92;;
43835;SDS011;39345;43.964;25.340;2023-02-17T07:49:27;68.63;;;40.95;;
43835;SDS011;39345;43.964;25.340;2023-02-17T07:51:55;74.85;;;41.67;;
43835;SDS011;39345;43.964;25.340;2023-02-17T07:54:22;72.53;;;44.35;;
43835;SDS011;39345;43.964;25.340;2023-02-17T07:56:49;72.05;;;43.60;;
43835;SDS011;39345;43.964;25.340;2023-02-17T07:59:17;81.03;;;49.10;;
43835;SDS011;39345;43.964;25.340;2023-02-17T08:01:44;70.90;;;43.22;;
43835;SDS011;39345;43.964;25.340;2023-02-17T08:04:12;70.03;;;42.67;;
43835;SDS011;39345;43.964;25.340;2023-02-17T08:06:39;62.75;;;40.47;;
43835;SDS011;39345;43.964;25.340;2023-02-17T08:09:08;68.85;;;40.92;;
43835;SDS011;39345;43.964;25.340;2023-02-17T08:11:55;65.45;;;38.55;;
43835;SDS011;39345;43.964;25.340;2023-02-17T08:14:42;61.28;;;37.22;;
43835;SDS011;39345;43.964;25.340;2023-02-17T08:17:09;64.85;;;38.35;;
43835;SDS011;39345;43.964;25.340;2023-02-17T08:19:37;71.85;;;44.53;;
43835;SDS011;39345;43.964;25.340;2023-02-17T08:22:14;60.35;;;37.70;;
43835;SDS011;39345;43.964;25.340;2023-02-17T08:24:42;69.30;;;43.55;;
43835;SDS011;39345;43.964;25.340;2023-02-17T08:27:10;56.13;;;35.45;;
43835;SDS011;39345;43.964;25.340;2023-02-17T08:29:39;57.90;;;37.72;;
43835;SDS011;39345;43.964;25.340;2023-02-17T08:32:07;56.80;;;36.45;;
43835;SDS011;39345;43.964;25.340;2023-02-17T08:34:34;61.58;;;36.42;;
43835;SDS011;39345;43.964;25.340;2023-02-17T08:37:03;52.60;;;34.67;;
43835;SDS011;39345;43.964;25.340;2023-02-17T08:39:30;53.22;;;33.47;;
43835;SDS011;39345;43.964;25.340;2023-02-17T08:41:58;56.63;;;35.20;;
43835;SDS011;39345;43.964;25.340;2023-02-17T08:44:28;57.15;;;36.67;;
43835;SDS011;39345;43.964;25.340;2023-02-17T08:46:55;60.90;;;38.22;;
43835;SDS011;39345;43.964;25.340;2023-02-17T08:49:24;62.17;;;36.58;;
43835;SDS011;39345;43.964;25.340;2023-02-17T08:51:53;53.35;;;34.83;;
43835;SDS011;39345;43.964;25.340;2023-02-17T08:54:21;57.13;;;35.13;;
43835;SDS011;39345;43.964;25.340;2023-02-17T08:56:48;53.92;;;34.13;;
43835;SDS011;39345;43.964;25.340;2023-02-17T08:59:16;56.38;;;32.15;;
43835;SDS011;39345;43.964;25.340;2023-02-17T09:01:43;52.85;;;34.15;;
43835;SDS011;39345;43.964;25.340;2023-02-17T09:04:11;50.53;;;32.53;;
43835;SDS011;39345;43.964;25.340;2023-02-17T09:06:40;48.20;;;30.60;;
43835;SDS011;39345;43.964;25.340;2023-02-17T09:09:09;51.92;;;32.38;;
43835;SDS011;39345;43.964;25.340;2023-02-17T09:11:37;52.42;;;31.40;;
43835;SDS011;39345;43.964;25.340;2023-02-17T09:14:05;47.05;;;30.73;;
43835;SDS011;39345;43.964;25.340;2023-02-17T09:16:33;46.45;;;30.38;;
43835;SDS011;39345;43.964;25.340;2023-02-17T09:19:00;48.13;;;29.55;;
43835;SDS011;39345;43.964;25.340;2023-02-17T09:21:28;48.45;;;29.45;;
43835;SDS011;39345;43.964;25.340;2023-02-17T09:23:55;47.45;;;30.05;;
43835;SDS011;39345;43.964;25.340;2023-02-17T09:26:23;46.50;;;29.45;;
43835;SDS011;39345;43.964;25.340;2023-02-17T09:28:51;43.60;;;29.40;;
43835;SDS011;39345;43.964;25.340;2023-02-17T09:31:20;47.95;;;28.50;;
43835;SDS011;39345;43.964;25.340;2023-02-17T09:33:47;46.50;;;28.40;;
43835;SDS011;39345;43.964;25.340;2023-02-17T09:36:20;46.85;;;29.35;;
43835;SDS011;39345;43.964;25.340;2023-02-17T09:38:48;43.92;;;27.80;;
43835;SDS011;39345;43.964;25.340;2023-02-17T09:43:57;46.13;;;28.67;;
43835;SDS011;39345;43.964;25.340;2023-02-17T09:46:29;42.30;;;26.75;;
43835;SDS011;39345;43.964;25.340;2023-02-17T09:49:00;45.75;;;28.10;;
43835;SDS011;39345;43.964;25.340;2023-02-17T09:51:31;45.17;;;27.63;;
43835;SDS011;39345;43.964;25.340;2023-02-17T09:54:15;47.42;;;27.33;;
43835;SDS011;39345;43.964;25.340;2023-02-17T09:56:46;43.20;;;26.52;;
43835;SDS011;39345;43.964;25.340;2023-02-17T10:01:45;41.75;;;26.60;;
43835;SDS011;39345;43.964;25.340;2023-02-17T10:04:15;40.95;;;25.65;;
43835;SDS011;39345;43.964;25.340;2023-02-17T10:06:46;38.70;;;24.75;;
43835;SDS011;39345;43.964;25.340;2023-02-17T10:09:33;38.50;;;23.92;;
43835;SDS011;39345;43.964;25.340;2023-02-17T10:17:14;39.47;;;24.40;;
43835;SDS011;39345;43.964;25.340;2023-02-17T10:19:49;35.00;;;22.83;;
43835;SDS011;39345;43.964;25.340;2023-02-17T10:22:18;36.25;;;22.38;;
43835;SDS011;39345;43.964;25.340;2023-02-17T10:24:46;32.47;;;21.17;;
43835;SDS011;39345;43.964;25.340;2023-02-17T10:27:27;31.88;;;21.30;;
43835;SDS011;39345;43.964;25.340;2023-02-17T10:32:27;36.08;;;20.90;;
43835;SDS011;39345;43.964;25.340;2023-02-17T10:37:46;31.35;;;20.38;;
43835;SDS011;39345;43.964;25.340;2023-02-17T10:40:22;30.40;;;20.17;;
43835;SDS011;39345;43.964;25.340;2023-02-17T10:43:01;33.42;;;21.15;;
43835;SDS011;39345;43.964;25.340;2023-02-17T10:48:05;35.75;;;21.27;;
43835;SDS011;39345;43.964;25.340;2023-02-17T10:50:34;33.28;;;21.60;;
43835;SDS011;39345;43.964;25.340;2023-02-17T10:53:10;34.40;;;22.30;;
43835;SDS011;39345;43.964;25.340;2023-02-17T10:55:40;37.42;;;22.30;;
43835;SDS011;39345;43.964;25.340;2023-02-17T11:01:00;33.42;;;20.55;;
43835;SDS011;39345;43.964;25.340;2023-02-17T11:03:31;32.17;;;20.58;;
43835;SDS011;39345;43.964;25.340;2023-02-17T11:06:13;40.03;;;20.95;;
43835;SDS011;39345;43.964;25.340;2023-02-17T11:11:21;32.90;;;19.80;;
43835;SDS011;39345;43.964;25.340;2023-02-17T11:16:34;33.35;;;19.52;;
43835;SDS011;39345;43.964;25.340;2023-02-17T11:19:03;30.63;;;18.98;;
43835;SDS011;39345;43.964;25.340;2023-02-17T11:21:31;27.55;;;18.30;;
43835;SDS011;39345;43.964;25.340;2023-02-17T11:24:04;29.05;;;19.17;;
43835;SDS011;39345;43.964;25.340;2023-02-17T11:26:32;28.10;;;17.58;;
43835;SDS011;39345;43.964;25.340;2023-02-17T11:34:30;29.77;;;18.30;;
43835;SDS011;39345;43.964;25.340;2023-02-17T11:39:42;25.33;;;16.83;;
43835;SDS011;39345;43.964;25.340;2023-02-17T11:42:15;40.78;;;16.95;;
43835;SDS011;39345;43.964;25.340;2023-02-17T11:44:43;27.08;;;15.10;;
43835;SDS011;39345;43.964;25.340;2023-02-17T11:49:43;33.70;;;14.48;;
43835;SDS011;39345;43.964;25.340;2023-02-17T11:52:18;21.95;;;13.40;;
43835;SDS011;39345;43.964;25.340;2023-02-17T11:55:12;25.63;;;13.55;;
43835;SDS011;39345;43.964;25.340;2023-02-17T12:00:31;22.85;;;14.75;;
43835;SDS011;39345;43.964;25.340;2023-02-17T12:11:27;22.92;;;13.13;;
43835;SDS011;39345;43.964;25.340;2023-02-17T12:21:43;28.45;;;12.70;;
43835;SDS011;39345;43.964;25.340;2023-02-17T12:32:12;18.65;;;11.05;;
43835;SDS011;39345;43.964;25.340;2023-02-17T12:34:48;23.25;;;11.13;;
43835;SDS011;39345;43.964;25.340;2023-02-17T12:37:21;23.92;;;11.25;;
43835;SDS011;39345;43.964;25.340;2023-02-17T12:40:03;17.10;;;10.82;;
43835;SDS011;39345;43.964;25.340;2023-02-17T12:42:34;17.60;;;11.32;;
43835;SDS011;39345;43.964;25.340;2023-02-17T12:45:13;24.73;;;13.38;;
43835;SDS011;39345;43.964;25.340;2023-02-17T12:52:41;25.77;;;14.07;;
43835;SDS011;39345;43.964;25.340;2023-02-17T13:00:19;22.95;;;13.75;;
43835;SDS011;39345;43.964;25.340;2023-02-17T13:02:47;22.20;;;14.35;;
43835;SDS011;39345;43.964;25.340;2023-02-17T13:05:18;20.85;;;13.02;;
43835;SDS011;39345;43.964;25.340;2023-02-17T13:07:47;22.83;;;13.50;;
43835;SDS011;39345;43.964;25.340;2023-02-17T13:10:17;23.83;;;14.30;;
43835;SDS011;39345;43.964;25.340;2023-02-17T13:12:54;18.05;;;11.27;;
43835;SDS011;39345;43.964;25.340;2023-02-17T13:15:41;139.80;;;18.88;;
43835;SDS011;39345;43.964;25.340;2023-02-17T13:18:24;18.63;;;10.30;;
43835;SDS011;39345;43.964;25.340;2023-02-17T13:20:54;17.45;;;10.82;;
43835;SDS011;39345;43.964;25.340;2023-02-17T13:23:26;16.67;;;10.68;;
43835;SDS011;39345;43.964;25.340;2023-02-17T13:26:14;17.55;;;10.25;;
43835;SDS011;39345;43.964;25.340;2023-02-17T13:28:43;17.60;;;10.00;;
43835;SDS011;39345;43.964;25.340;2023-02-17T13:33:43;15.93;;;8.98;;
43835;SDS011;39345;43.964;25.340;2023-02-17T13:36:11;18.08;;;9.02;;
43835;SDS011;39345;43.964;25.340;2023-02-17T13:38:39;15.20;;;9.15;;
43835;SDS011;39345;43.964;25.340;2023-02-17T13:41:06;14.95;;;9.10;;
43835;SDS011;39345;43.964;25.340;2023-02-17T13:43:41;14.80;;;9.57;;
43835;SDS011;39345;43.964;25.340;2023-02-17T13:46:09;15.68;;;9.55;;
43835;SDS011;39345;43.964;25.340;2023-02-17T13:48:40;15.30;;;9.38;;
43835;SDS011;39345;43.964;25.340;2023-02-17T13:51:20;20.27;;;9.82;;
43835;SDS011;39345;43.964;25.340;2023-02-17T13:53:50;13.82;;;8.20;;
43835;SDS011;39345;43.964;25.340;2023-02-17T13:56:27;12.80;;;8.48;;
43835;SDS011;39345;43.964;25.340;2023-02-17T13:59:07;14.07;;;7.70;;
43835;SDS011;39345;43.964;25.340;2023-02-17T14:01:36;10.82;;;7.10;;
43835;SDS011;39345;43.964;25.340;2023-02-17T14:04:05;15.40;;;8.05;;
43835;SDS011;39345;43.964;25.340;2023-02-17T14:06:43;11.00;;;7.57;;
43835;SDS011;39345;43.964;25.340;2023-02-17T14:09:13;12.98;;;6.90;;
43835;SDS011;39345;43.964;25.340;2023-02-17T14:11:46;14.38;;;7.10;;
43835;SDS011;39345;43.964;25.340;2023-02-17T14:14:13;12.23;;;7.13;;
43835;SDS011;39345;43.964;25.340;2023-02-17T14:16:41;12.32;;;7.38;;
43835;SDS011;39345;43.964;25.340;2023-02-17T14:21:43;14.60;;;7.47;;
43835;SDS011;39345;43.964;25.340;2023-02-17T14:24:25;13.40;;;7.75;;
43835;SDS011;39345;43.964;25.340;2023-02-17T14:26:57;11.68;;;8.00;;
43835;SDS011;39345;43.964;25.340;2023-02-17T14:29:25;16.42;;;8.52;;
43835;SDS011;39345;43.964;25.340;2023-02-17T14:31:52;15.40;;;8.48;;
43835;SDS011;39345;43.964;25.340;2023-02-17T14:36:50;16.15;;;8.70;;
43835;SDS011;39345;43.964;25.340;2023-02-17T14:39:18;15.70;;;8.80;;
43835;SDS011;39345;43.964;25.340;2023-02-17T14:41:45;15.82;;;9.45;;
43835;SDS011;39345;43.964;25.340;2023-02-17T14:44:13;16.00;;;9.05;;
43835;SDS011;39345;43.964;25.340;2023-02-17T14:46:40;13.80;;;8.57;;
43835;SDS011;39345;43.964;25.340;2023-02-17T14:49:08;14.77;;;8.50;;
43835;SDS011;39345;43.964;25.340;2023-02-17T14:51:36;15.88;;;9.63;;
43835;SDS011;39345;43.964;25.340;2023-02-17T14:54:13;18.25;;;10.02;;
43835;SDS011;39345;43.964;25.340;2023-02-17T14:56:50;20.33;;;10.45;;
43835;SDS011;39345;43.964;25.340;2023-02-17T14:59:19;21.50;;;10.52;;
43835;SDS011;39345;43.964;25.340;2023-02-17T15:01:47;22.83;;;10.80;;
43835;SDS011;39345;43.964;25.340;2023-02-17T15:04:14;19.77;;;10.38;;
43835;SDS011;39345;43.964;25.340;2023-02-17T15:06:43;21.02;;;10.13;;
43835;SDS011;39345;43.964;25.340;2023-02-17T15:09:11;19.10;;;9.93;;
43835;SDS011;39345;43.964;25.340;2023-02-17T15:11:39;20.77;;;10.15;;
43835;SDS011;39345;43.964;25.340;2023-02-17T15:14:15;18.48;;;10.48;;
43835;SDS011;39345;43.964;25.340;2023-02-17T15:16:43;20.23;;;9.63;;
43835;SDS011;39345;43.964;25.340;2023-02-17T15:19:12;16.65;;;10.30;;
43835;SDS011;39345;43.964;25.340;2023-02-17T15:21:42;18.67;;;10.82;;
43835;SDS011;39345;43.964;25.340;2023-02-17T15:24:15;20.30;;;10.35;;
43835;SDS011;39345;43.964;25.340;2023-02-17T15:26:43;21.30;;;10.57;;
43835;SDS011;39345;43.964;25.340;2023-02-17T15:29:18;18.30;;;11.43;;
43835;SDS011;39345;43.964;25.340;2023-02-17T15:31:46;18.33;;;10.10;;
43835;SDS011;39345;43.964;25.340;2023-02-17T15:34:14;17.15;;;9.98;;
43835;SDS011;39345;43.964;25.340;2023-02-17T15:36:42;19.70;;;10.48;;
43835;SDS011;39345;43.964;25.340;2023-02-17T15:39:13;17.05;;;10.60;;
43835;SDS011;39345;43.964;25.340;2023-02-17T15:41:41;16.63;;;10.20;;
43835;SDS011;39345;43.964;25.340;2023-02-17T15:44:13;17.48;;;11.45;;
43835;SDS011;39345;43.964;25.340;2023-02-17T15:46:41;19.30;;;10.55;;
43835;SDS011;39345;43.964;25.340;2023-02-17T15:49:11;19.40;;;10.48;;
43835;SDS011;39345;43.964;25.340;2023-02-17T15:51:39;23.63;;;12.15;;
43835;SDS011;39345;43.964;25.340;2023-02-17T15:54:07;20.48;;;10.57;;
43835;SDS011;39345;43.964;25.340;2023-02-17T15:56:55;19.02;;;10.90;;
43835;SDS011;39345;43.964;25.340;2023-02-17T15:59:22;22.90;;;11.13;;
43835;SDS011;39345;43.964;25.340;2023-02-17T16:01:51;20.83;;;12.07;;
43835;SDS011;39345;43.964;25.340;2023-02-17T16:04:21;27.38;;;11.43;;
43835;SDS011;39345;43.964;25.340;2023-02-17T16:06:49;21.88;;;11.55;;
43835;SDS011;39345;43.964;25.340;2023-02-17T16:09:16;21.80;;;12.20;;